Time;durP1;ratioP1;P1;durP2;ratioP2;P2;SDS_P1;SDS_P2;PMS_P1;PMS_P2;Temp;Humidity;BMP_temperature;BMP_pressure;BME280_temperature;BME280_humidity;BME280_pressure;Samples;Min_cycle;Max_cycle;Signal;HPM_P1;HPM_P2
2024/03/06 00:01:39;;;;;;;76.57;36.85;;;;;;;9.25;100.00;99877.38;5090010;28;20024;-78
2024/03/06 00:04:04;;;;;;;82.30;37.67;;;;;;;9.00;100.00;99858.72;5089917;28;20040;-76
2024/03/06 00:06:30;;;;;;;76.95;39.17;;;;;;;9.09;100.00;99873.38;5090275;28;20019;-77
2024/03/06 00:08:56;;;;;;;78.03;40.13;;;;;;;9.02;100.00;99851.34;5089682;28;20032;-77
2024/03/06 00:11:21;;;;;;;81.38;41.42;;;;;;;9.11;100.00;99862.53;5090434;28;20719;-76
2024/03/06 00:13:47;;;;;;;82.35;42.10;;;;;;;9.24;100.00;99871.25;5089587;28;20135;-76
2024/03/06 00:16:13;;;;;;;92.60;42.63;;;;;;;9.28;100.00;99865.50;5090047;28;20024;-76
2024/03/06 00:18:40;;;;;;;74.85;40.38;;;;;;;9.21;100.00;99852.22;5071424;28;20032;-76
2024/03/06 00:21:05;;;;;;;87.97;43.53;;;;;;;9.05;100.00;99825.13;5089563;28;20484;-76
2024/03/06 00:23:31;;;;;;;89.38;43.38;;;;;;;9.35;100.00;99871.59;5089897;28;20024;-76
2024/03/06 00:25:56;;;;;;;88.20;43.15;;;;;;;9.15;100.00;99851.22;5089928;28;20437;-76
2024/03/06 00:28:22;;;;;;;84.60;42.10;;;;;;;9.07;100.00;99856.81;5089510;28;20044;-77
2024/03/06 00:30:47;;;;;;;81.53;39.30;;;;;;;9.20;100.00;99861.25;5089335;28;20028;-77
2024/03/06 00:33:13;;;;;;;75.45;37.55;;;;;;;9.03;100.00;99851.13;5071329;28;20073;-78
2024/03/06 00:35:38;;;;;;;68.22;35.38;;;;;;;9.22;100.00;99864.50;5071618;28;20035;-76
2024/03/06 00:38:04;;;;;;;74.72;35.92;;;;;;;9.06;100.00;99860.50;5089246;28;20457;-77
2024/03/06 00:40:32;;;;;;;71.68;35.08;;;;;;;8.93;100.00;99847.28;5064157;28;20092;-77
2024/03/06 00:42:58;;;;;;;69.05;34.20;;;;;;;9.19;100.00;99873.75;5089230;28;20027;-76
2024/03/06 00:45:24;;;;;;;70.55;35.33;;;;;;;8.93;100.00;99877.38;5089729;28;20086;-77
2024/03/06 00:47:49;;;;;;;67.38;33.38;;;;;;;9.04;100.00;99862.56;5089103;28;20024;-77
2024/03/06 00:50:16;;;;;;;76.63;36.30;;;;;;;9.06;100.00;99879.13;5089306;28;20035;-77
2024/03/06 00:52:42;;;;;;;76.75;33.88;;;;;;;9.10;100.00;99867.03;5089570;28;20031;-77
2024/03/06 00:55:09;;;;;;;72.18;35.75;;;;;;;8.98;100.00;99880.19;5071311;28;20028;-76
2024/03/06 00:57:35;;;;;;;70.00;34.53;;;;;;;8.75;100.00;99861.31;5089257;28;20081;-77
2024/03/06 01:00:01;;;;;;;68.00;34.42;;;;;;;8.81;100.00;99861.25;5089027;28;20028;-78
2024/03/06 01:02:27;;;;;;;75.93;37.40;;;;;;;8.94;100.00;99875.50;5070932;28;20027;-77
2024/03/06 01:04:52;;;;;;;72.75;37.67;;;;;;;8.97;100.00;99891.03;5070865;28;20028;-76
2024/03/06 01:07:18;;;;;;;82.38;39.30;;;;;;;9.00;100.00;99885.31;5088379;28;20504;-77
2024/03/06 01:09:44;;;;;;;72.75;36.50;;;;;;;8.72;100.00;99875.81;5070754;28;20028;-77
2024/03/06 01:12:10;;;;;;;76.25;37.97;;;;;;;8.77;100.00;99881.31;5088983;28;20565;-78
2024/03/06 01:14:36;;;;;;;67.28;34.53;;;;;;;8.53;100.00;99880.19;5088737;28;20028;-77
2024/03/06 01:17:02;;;;;;;69.03;34.95;;;;;;;8.65;100.00;99883.00;5088495;28;20111;-77
2024/03/06 01:19:27;;;;;;;64.75;35.92;;;;;;;8.64;100.00;99876.06;5088246;28;20092;-77
2024/03/06 01:21:53;;;;;;;72.38;36.85;;;;;;;8.59;100.00;99878.53;5070569;28;20060;-77
2024/03/06 01:24:18;;;;;;;64.82;33.72;;;;;;;8.45;100.00;99889.19;5070432;28;20031;-77
2024/03/06 01:26:43;;;;;;;62.95;31.33;;;;;;;8.34;100.00;99881.84;5088693;28;20445;-77
2024/03/06 01:29:09;;;;;;;57.33;30.15;;;;;;;8.38;100.00;99898.22;5066818;28;20055;-78
2024/03/06 01:31:34;;;;;;;56.97;31.10;;;;;;;8.51;100.00;99892.06;5068118;28;20515;-77
2024/03/06 01:34:00;;;;;;;57.03;30.58;;;;;;;8.57;100.00;99892.03;5068497;28;20028;-77
2024/03/06 01:36:25;;;;;;;56.72;31.83;;;;;;;8.74;100.00;99895.03;5068290;28;20118;-76
2024/03/06 01:38:50;;;;;;;63.53;32.40;;;;;;;8.72;100.00;99889.09;5066694;28;20044;-76
2024/03/06 01:41:16;;;;;;;62.13;32.40;;;;;;;8.85;100.00;99878.44;5068091;28;20039;-77
2024/03/06 01:43:41;;;;;;;59.88;29.92;;;;;;;8.76;100.00;99898.28;5068167;28;20201;-77
2024/03/06 01:46:07;;;;;;;60.85;31.67;;;;;;;8.72;100.00;99891.75;5066676;28;20031;-78
2024/03/06 01:48:33;;;;;;;57.88;29.70;;;;;;;8.81;100.00;99903.00;5068035;28;20032;-76
2024/03/06 01:51:02;;;;;;;56.90;31.52;;;;;;;8.90;100.00;99901.72;5067286;28;20032;-78
2024/03/06 01:53:30;;;;;;;58.42;31.48;;;;;;;8.64;100.00;99881.38;5066497;28;20124;-77
2024/03/06 01:55:56;;;;;;;;;;;;;;;8.76;100.00;99911.59;5068653;28;20235;-76
2024/03/06 01:58:23;;;;;;;59.42;28.67;;;;;;;8.77;100.00;99876.00;5067479;28;20373;-76
2024/03/06 02:00:50;;;;;;;65.50;30.45;;;;;;;9.14;100.00;99912.66;5065969;28;20451;-76
2024/03/06 02:03:15;;;;;;;63.83;29.73;;;;;;;8.97;100.00;99907.00;5067560;28;20043;-76
2024/03/06 02:05:41;;;;;;;62.88;30.25;;;;;;;8.85;100.00;99899.69;5067619;28;20028;-76
2024/03/06 02:08:07;;;;;;;63.47;29.67;;;;;;;8.95;100.00;99903.72;5067537;28;20422;-76
2024/03/06 02:10:34;;;;;;;63.00;29.77;;;;;;;9.07;100.00;99910.00;5067661;28;20060;-77
2024/03/06 02:12:59;;;;;;;69.97;32.13;;;;;;;9.15;100.00;99883.16;5067544;28;20035;-77
2024/03/06 02:15:25;;;;;;;69.88;32.85;;;;;;;9.14;100.00;99912.66;5067662;28;20029;-77
2024/03/06 02:17:52;;;;;;;66.53;32.08;;;;;;;8.96;100.00;99890.22;5067279;28;20103;-77
2024/03/06 02:20:24;;;;;;;64.38;31.38;;;;;;;9.05;100.00;99906.75;5065535;28;20028;-76
2024/03/06 02:22:50;;;;;;;76.43;35.30;;;;;;;8.87;100.00;99882.69;5067375;28;20024;-77
2024/03/06 02:25:16;;;;;;;67.95;32.20;;;;;;;9.04;100.00;99918.44;5066143;28;20056;-76
2024/03/06 02:27:43;;;;;;;67.50;34.20;;;;;;;8.89;100.00;99883.31;5065632;28;20484;-77
2024/03/06 02:30:09;;;;;;;69.18;32.03;;;;;;;9.11;100.00;99911.22;5066703;28;20028;-78
2024/03/06 02:32:34;;;;;;;61.15;30.52;;;;;;;9.08;100.00;99906.34;5066958;28;20036;-77
2024/03/06 02:35:08;;;;;;;66.47;30.67;;;;;;;8.93;100.00;99903.97;5067009;28;20028;-78
2024/03/06 02:37:33;;;;;;;66.72;32.13;;;;;;;8.97;100.00;99891.03;5067203;28;20093;-76
2024/03/06 02:39:59;;;;;;;69.20;32.00;;;;;;;9.02;100.00;99910.66;5066838;28;20455;-76
2024/03/06 02:42:24;;;;;;;64.95;31.48;;;;;;;8.99;100.00;99902.28;5065868;28;20039;-77
2024/03/06 02:44:50;;;;;;;63.42;31.50;;;;;;;9.01;100.00;99913.53;5067377;28;20482;-77
2024/03/06 02:47:15;;;;;;;69.22;32.35;;;;;;;8.90;100.00;99899.06;5065527;28;20040;-77
2024/03/06 02:49:41;;;;;;;65.05;31.88;;;;;;;8.93;100.00;99913.75;5066951;28;20020;-76
2024/03/06 02:52:06;;;;;;;62.45;31.02;;;;;;;8.89;100.00;99904.56;5066897;28;20119;-76
2024/03/06 02:54:31;;;;;;;66.03;30.52;;;;;;;9.04;100.00;99907.78;5065356;28;20169;-75
2024/03/06 02:56:57;;;;;;;69.55;31.02;;;;;;;9.03;100.00;99919.44;5065313;28;20036;-77
2024/03/06 02:59:23;;;;;;;67.30;32.15;;;;;;;8.85;100.00;99920.97;5066470;28;20081;-76
2024/03/06 03:01:49;;;;;;;68.80;31.52;;;;;;;8.95;100.00;99931.16;5066416;28;20047;-76
2024/03/06 03:04:14;;;;;;;69.18;32.60;;;;;;;9.04;100.00;99918.44;5066753;28;20020;-76
2024/03/06 03:06:40;;;;;;;64.53;31.13;;;;;;;9.02;100.00;99923.97;5067146;28;20367;-76
2024/03/06 03:09:05;;;;;;;61.67;30.02;;;;;;;8.89;100.00;99920.53;5065249;28;21052;-76
2024/03/06 03:11:31;;;;;;;61.30;30.42;;;;;;;8.93;100.00;99927.06;5066521;28;20028;-76
2024/03/06 03:13:57;;;;;;;64.97;31.52;;;;;;;9.08;100.00;99935.59;5065279;28;20029;-76
2024/03/06 03:16:22;;;;;;;62.83;28.80;;;;;;;9.08;100.00;99946.25;5066724;28;20039;-76
2024/03/06 03:18:48;;;;;;;63.88;31.20;;;;;;;9.09;100.00;99939.88;5066413;28;20024;-76
2024/03/06 03:21:14;;;;;;;55.35;29.40;;;;;;;9.13;100.00;99937.63;5066301;28;20024;-76
2024/03/06 03:23:40;;;;;;;58.50;29.65;;;;;;;9.04;100.00;99931.72;5066638;28;20575;-76
2024/03/06 03:26:07;;;;;;;60.20;29.40;;;;;;;8.99;100.00;99927.06;5066086;28;20060;-76
2024/03/06 03:28:32;;;;;;;63.28;30.15;;;;;;;9.03;100.00;99948.72;5080312;28;20127;-76
2024/03/06 03:30:58;;;;;;;68.10;32.42;;;;;;;8.85;100.00;99926.28;5070357;28;20177;-76
2024/03/06 03:33:23;;;;;;;73.05;34.50;;;;;;;8.88;100.00;99918.91;5090907;28;20111;-76
2024/03/06 03:35:49;;;;;;;69.82;33.03;;;;;;;8.92;100.00;99936.09;5090702;28;20676;-76
2024/03/06 03:38:14;;;;;;;70.63;34.90;;;;;;;8.81;100.00;99940.22;5090431;28;20028;-76
2024/03/06 03:40:40;;;;;;;69.22;33.58;;;;;;;8.97;100.00;99933.59;5090442;28;20060;-77
2024/03/06 03:43:08;;;;;;;75.80;35.00;;;;;;;8.98;100.00;99933.38;5090791;28;20102;-77
2024/03/06 03:45:34;;;;;;;65.53;31.40;;;;;;;9.01;100.00;99940.13;5090579;28;20386;-77
2024/03/06 03:48:03;;;;;;;57.58;30.13;;;;;;;8.87;100.00;99922.59;5072049;28;20512;-76
2024/03/06 03:50:29;;;;;;;70.90;33.47;;;;;;;8.90;100.00;99919.53;5079410;28;20031;-76
2024/03/06 03:52:57;;;;;;;68.38;31.60;;;;;;;8.81;100.00;99938.38;5090451;28;20092;-76
2024/03/06 03:55:23;;;;;;;;;;;;;;;8.78;100.00;99941.44;5091259;28;20024;-77
2024/03/06 03:57:48;;;;;;;65.25;31.40;;;;;;;8.69;100.00;99936.59;5090093;28;19918;-77
2024/03/06 04:00:14;;;;;;;61.28;30.13;;;;;;;8.65;100.00;99941.50;5090278;28;20493;-77
2024/03/06 04:02:39;;;;;;;59.67;30.58;;;;;;;8.65;100.00;99944.16;5090029;28;20111;-77
2024/03/06 04:05:05;;;;;;;56.83;29.00;;;;;;;8.52;100.00;99936.19;5090146;28;20077;-78
2024/03/06 04:07:31;;;;;;;60.28;29.48;;;;;;;8.66;100.00;99932.47;5090748;28;20028;-77
2024/03/06 04:09:56;;;;;;;59.75;29.55;;;;;;;8.66;100.00;99935.13;5090144;28;20036;-77
2024/03/06 04:12:23;;;;;;;64.60;31.17;;;;;;;8.76;100.00;99938.16;5089950;28;20092;-77
2024/03/06 04:14:48;;;;;;;64.65;32.53;;;;;;;8.63;100.00;99952.34;5089995;28;20036;-77
2024/03/06 04:17:15;;;;;;;62.17;30.67;;;;;;;8.53;100.00;99961.78;5090234;28;20373;-78
2024/03/06 04:19:40;;;;;;;64.28;31.05;;;;;;;8.64;100.00;99950.47;5071430;28;20505;-77
2024/03/06 04:22:05;;;;;;;62.42;30.33;;;;;;;8.62;100.00;99948.06;5089676;28;20038;-77
2024/03/06 04:24:31;;;;;;;62.20;32.63;;;;;;;8.66;100.00;99959.06;5089650;28;20035;-78
2024/03/06 04:26:56;;;;;;;65.45;31.95;;;;;;;8.65;100.00;99957.44;5089977;28;20024;-78
2024/03/06 04:29:21;;;;;;;63.47;30.52;;;;;;;8.68;100.00;99964.19;5089656;28;20038;-78
2024/03/06 04:31:47;;;;;;;64.10;30.27;;;;;;;8.62;100.00;99958.69;5089861;28;20039;-78
2024/03/06 04:34:12;;;;;;;61.67;29.63;;;;;;;8.40;100.00;99971.38;5090006;28;20121;-78
2024/03/06 04:36:38;;;;;;;74.13;37.25;;;;;;;8.50;100.00;99964.81;5089367;28;20510;-77
2024/03/06 04:39:07;;;;;;;79.82;40.50;;;;;;;8.35;100.00;99973.81;5089510;28;20103;-78
2024/03/06 04:41:36;;;;;;;70.38;36.25;;;;;;;8.30;100.00;99972.81;5088451;28;20048;-76
2024/03/06 04:44:01;;;;;;;83.20;35.50;;;;;;;8.50;100.00;99975.47;5071141;28;20580;-77
2024/03/06 04:46:26;;;;;;;89.07;38.10;;;;;;;8.44;100.00;99967.31;5089269;28;20067;-77
2024/03/06 04:48:52;;;;;;;92.93;41.60;;;;;;;8.38;100.00;99973.41;5089591;28;20059;-77
2024/03/06 04:51:19;;;;;;;93.57;43.38;;;;;;;8.09;100.00;99968.53;5088970;28;20028;-77
2024/03/06 04:53:45;;;;;;;121.13;39.42;;;;;;;8.15;100.00;99981.81;5089269;28;20083;-76
2024/03/06 04:56:11;;;;;;;167.32;50.97;;;;;;;8.43;100.00;100000.22;5071196;28;20035;-77
2024/03/06 04:58:36;;;;;;;194.85;49.08;;;;;;;8.40;100.00;99982.00;5089226;28;20020;-77
2024/03/06 05:01:03;;;;;;;185.18;47.80;;;;;;;8.31;100.00;99979.75;5070743;28;20093;-78
2024/03/06 05:03:29;;;;;;;171.13;49.67;;;;;;;8.37;100.00;99993.03;5088905;28;20077;-77
2024/03/06 05:05:54;;;;;;;193.27;49.60;;;;;;;8.14;100.00;99953.63;5089061;28;20032;-76
2024/03/06 05:08:20;;;;;;;160.50;58.85;;;;;;;8.26;100.00;99993.66;5070753;28;20519;-77
2024/03/06 05:10:46;;;;;;;363.05;171.68;;;;;;;8.27;100.00;99986.50;5070568;28;20093;-78
2024/03/06 05:13:12;;;;;;;279.05;80.97;;;;;;;8.54;100.00;100008.56;5088523;28;20084;-77
2024/03/06 05:15:38;;;;;;;172.30;54.05;;;;;;;8.48;100.00;100015.56;5088293;28;20036;-77
2024/03/06 05:18:05;;;;;;;228.43;58.83;;;;;;;8.16;100.00;99991.41;5088836;28;20016;-79
2024/03/06 05:20:33;;;;;;;197.50;48.33;;;;;;;8.45;100.00;100016.75;5088310;28;20085;-77
2024/03/06 05:22:59;;;;;;;197.55;49.75;;;;;;;8.39;100.00;100014.91;5088661;28;20028;-77
2024/03/06 05:25:24;;;;;;;222.88;60.22;;;;;;;8.36;100.00;100001.22;5070446;28;20024;-79
2024/03/06 05:27:50;;;;;;;297.48;84.32;;;;;;;8.20;100.00;100013.09;5088192;28;20051;-78
2024/03/06 05:30:16;;;;;;;267.48;77.18;;;;;;;8.22;100.00;100005.72;5087542;28;20412;-77
2024/03/06 05:32:41;;;;;;;224.15;66.30;;;;;;;8.26;100.00;100028.19;5088214;28;20474;-77
2024/03/06 05:35:11;;;;;;;373.50;82.68;;;;;;;8.40;100.00;100035.16;5087528;28;20617;-78
2024/03/06 05:37:37;;;;;;;269.55;93.18;;;;;;;8.32;100.00;100006.13;5088333;28;20023;-77
2024/03/06 05:40:06;;;;;;;261.25;54.97;;;;;;;8.30;100.00;100012.69;5077720;28;20522;-77
2024/03/06 05:42:31;;;;;;;273.13;49.50;;;;;;;8.51;100.00;100039.06;5087600;28;20027;-77
2024/03/06 05:45:10;;;;;;;266.60;47.88;;;;;;;8.51;100.00;100027.59;5087778;28;20027;-77
2024/03/06 05:47:35;;;;;;;389.48;52.30;;;;;;;8.42;100.00;100019.84;5087769;28;20024;-77
2024/03/06 05:50:04;;;;;;;213.95;48.38;;;;;;;8.44;100.00;100035.59;5087249;28;20031;-78
2024/03/06 05:52:33;;;;;;;313.58;53.88;;;;;;;8.14;100.00;100003.28;5086865;28;20172;-76
2024/03/06 05:54:59;;;;;;;263.33;45.28;;;;;;;8.34;100.00;100030.66;5073794;28;20524;-77
2024/03/06 05:57:25;;;;;;;143.25;39.58;;;;;;;8.30;100.00;100033.94;5087182;28;20055;-77
2024/03/06 05:59:50;;;;;;;170.45;41.45;;;;;;;8.53;100.00;100047.63;5069485;28;20686;-78
2024/03/06 06:02:16;;;;;;;161.02;40.75;;;;;;;8.19;100.00;100022.06;5087525;28;20403;-77
2024/03/06 06:04:42;;;;;;;212.35;67.63;;;;;;;8.41;100.00;100026.16;5088020;28;20027;-78
2024/03/06 06:07:07;;;;;;;144.60;43.88;;;;;;;8.37;100.00;100032.88;5087741;28;20437;-77
2024/03/06 06:09:33;;;;;;;175.40;64.68;;;;;;;8.42;100.00;100025.16;5069750;28;20518;-76
2024/03/06 06:11:59;;;;;;;183.23;45.47;;;;;;;8.49;100.00;100053.56;5087883;28;20054;-77
2024/03/06 06:14:26;;;;;;;185.00;49.70;;;;;;;8.46;100.00;100052.16;5087619;28;20020;-78
2024/03/06 06:16:52;;;;;;;144.87;42.63;;;;;;;8.33;100.00;100029.00;5087683;28;20024;-77
2024/03/06 06:19:17;;;;;;;154.90;42.65;;;;;;;8.52;100.00;100046.00;5087818;28;20712;-77
2024/03/06 06:21:43;;;;;;;151.77;44.13;;;;;;;8.58;100.00;100053.16;5086863;28;20035;-79
2024/03/06 06:24:09;;;;;;;171.85;59.00;;;;;;;8.51;100.00;100064.81;5087097;28;20052;-77
2024/03/06 06:26:35;;;;;;;171.85;46.08;;;;;;;8.48;100.00;100054.59;5075380;28;20024;-77
2024/03/06 06:29:01;;;;;;;125.32;44.08;;;;;;;8.63;100.00;100049.88;5076852;28;20051;-77
2024/03/06 06:31:26;;;;;;;87.90;37.33;;;;;;;8.87;100.00;100066.19;5083742;28;20039;-77
2024/03/06 06:33:53;;;;;;;86.88;38.75;;;;;;;8.90;100.00;100068.44;5086662;28;20032;-78
2024/03/06 06:36:19;;;;;;;90.88;37.78;;;;;;;8.84;100.00;100046.16;5086959;28;20162;-77
2024/03/06 06:38:45;;;;;;;85.25;36.35;;;;;;;9.11;100.00;100075.34;5087120;28;20492;-77
2024/03/06 06:41:11;;;;;;;85.85;36.20;;;;;;;8.93;100.00;100060.03;5086362;28;20997;-78
2024/03/06 06:43:36;;;;;;;77.85;33.88;;;;;;;8.97;100.00;100082.53;5086460;28;20070;-78
2024/03/06 06:46:04;;;;;;;79.10;33.75;;;;;;;8.94;100.00;100064.34;5074895;28;20024;-77
2024/03/06 06:48:30;;;;;;;;;;;;;;;9.11;100.00;100083.34;5087767;28;20177;-77
2024/03/06 06:50:55;;;;;;;64.53;30.83;;;;;;;9.18;100.00;100087.63;5068895;28;20618;-78
2024/03/06 06:53:20;;;;;;;119.55;47.80;;;;;;;9.39;100.00;100096.34;5068491;28;20035;-77
2024/03/06 06:55:46;;;;;;;80.97;36.17;;;;;;;9.69;100.00;100080.66;5068505;28;20118;-77
2024/03/06 06:58:11;;;;;;;74.32;35.20;;;;;;;9.88;100.00;100086.09;5087001;28;20539;-76
2024/03/06 07:00:37;;;;;;;73.60;34.88;;;;;;;9.94;100.00;100088.72;5086765;28;20140;-76
2024/03/06 07:03:03;;;;;;;66.07;32.38;;;;;;;10.02;100.00;100075.16;5086600;28;20039;-76
2024/03/06 07:05:29;;;;;;;63.35;30.70;;;;;;;9.94;100.00;100078.06;5068528;28;20063;-77
2024/03/06 07:07:54;;;;;;;60.20;29.20;;;;;;;9.89;100.00;100069.91;5087011;28;20309;-78
2024/03/06 07:10:19;;;;;;;55.33;27.10;;;;;;;9.62;100.00;100080.72;5086685;28;20039;-77
2024/03/06 07:12:45;;;;;;;54.00;27.60;;;;;;;9.58;100.00;100063.53;5086415;28;20056;-78
2024/03/06 07:15:10;;;;;;;56.35;28.10;;;;;;;9.79;100.00;100075.69;5085811;28;20024;-76
2024/03/06 07:17:36;;;;;;;58.25;29.02;;;;;;;9.96;100.00;100084.00;5086447;28;20032;-76
2024/03/06 07:20:01;;;;;;;50.08;26.15;;;;;;;9.87;100.00;100082.63;5085829;28;20032;-77
2024/03/06 07:22:26;;;;;;;59.13;27.35;;;;;;;9.94;100.00;100072.75;5085709;28;20042;-77
2024/03/06 07:24:52;;;;;;;57.70;27.52;;;;;;;9.91;100.00;100081.16;5086168;28;20814;-78
2024/03/06 07:27:18;;;;;;;54.42;26.92;;;;;;;9.71;100.00;100065.28;5085218;28;20040;-78
2024/03/06 07:29:43;;;;;;;50.35;25.40;;;;;;;9.78;100.00;100063.41;5086093;28;20077;-77
2024/03/06 07:32:09;;;;;;;49.33;25.27;;;;;;;10.27;100.00;100093.00;5076829;28;20032;-78
2024/03/06 07:34:35;;;;;;;44.95;25.98;;;;;;;10.42;100.00;100074.06;5086263;28;20112;-77
2024/03/06 07:37:00;;;;;;;51.05;27.20;;;;;;;10.48;100.00;100077.72;5067880;28;20030;-77
2024/03/06 07:39:26;;;;;;;51.75;27.27;;;;;;;10.50;100.00;100086.31;5086061;28;20031;-77
2024/03/06 07:41:51;;;;;;;46.42;24.20;;;;;;;10.44;100.00;100080.00;5101250;28;20047;-77
2024/03/06 07:44:17;;;;;;;49.30;26.73;;;;;;;10.48;100.00;100061.72;5085792;28;20024;-77
2024/03/06 07:46:42;;;;;;;51.22;27.20;;;;;;;10.56;100.00;100082.78;5086734;28;20028;-77
2024/03/06 07:49:08;;;;;;;49.47;26.92;;;;;;;10.48;100.00;100089.19;5086232;28;20040;-78
2024/03/06 07:51:34;;;;;;;53.85;28.00;;;;;;;10.72;100.00;100089.41;5085922;28;20024;-77
2024/03/06 07:54:00;;;;;;;45.42;24.25;;;;;;;10.98;100.00;100077.69;5063089;28;20032;-77
2024/03/06 07:56:26;;;;;;;48.55;23.88;;;;;;;11.04;100.00;100080.28;5076824;28;20028;-76
2024/03/06 07:58:53;;;;;;;48.85;24.27;;;;;;;10.76;100.00;100059.41;5074019;28;20111;-77
2024/03/06 08:01:19;;;;;;;47.58;25.92;;;;;;;11.06;100.00;100088.06;5078308;28;20582;-77
2024/03/06 08:03:46;;;;;;;42.00;23.10;;;;;;;10.93;100.00;100064.16;5086175;28;20027;-78
2024/03/06 08:06:11;;;;;;;38.00;21.02;;;;;;;10.98;100.00;100085.69;5086124;28;20024;-78
2024/03/06 08:08:40;;;;;;;43.58;23.60;;;;;;;10.89;100.00;100076.31;5067876;28;20020;-77
2024/03/06 08:11:05;;;;;;;41.05;21.58;;;;;;;11.00;100.00;100083.59;5086199;28;20039;-77
2024/03/06 08:13:31;;;;;;;41.83;23.30;;;;;;;11.05;100.00;100057.91;5085807;28;20419;-77
2024/03/06 08:15:56;;;;;;;43.42;23.33;;;;;;;11.26;100.00;100091.34;5085788;28;20493;-78
2024/03/06 08:18:21;;;;;;;40.08;22.55;;;;;;;11.44;100.00;100084.34;5084898;28;20481;-77
2024/03/06 08:20:47;;;;;;;40.85;22.27;;;;;;;11.54;100.00;100089.97;5080722;28;20028;-77
2024/03/06 08:23:12;;;;;;;31.83;17.65;;;;;;;11.81;100.00;100092.28;5081776;28;20119;-78
2024/03/06 08:25:38;;;;;;;35.97;20.98;;;;;;;11.92;100.00;100099.59;5088719;28;20028;-78
2024/03/06 08:28:05;;;;;;;31.67;17.65;;;;;;;11.63;100.00;100085.97;5086780;28;20055;-77
2024/03/06 08:30:31;;;;;;;29.92;18.05;;;;;;;11.57;100.00;100086.06;5080626;28;20515;-77
2024/03/06 08:32:56;;;;;;;29.85;17.83;;;;;;;11.80;100.00;100074.66;5089119;28;20501;-78
2024/03/06 08:35:23;;;;;;;28.00;16.17;;;;;;;11.84;100.00;100076.63;5089185;28;20020;-78
2024/03/06 08:37:50;;;;;;;26.13;16.45;;;;;;;12.06;100.00;100074.28;5089720;28;20042;-78
2024/03/06 08:40:17;;;;;;;29.35;17.23;;;;;;;12.41;100.00;100092.28;5089281;28;20552;-77
2024/03/06 08:42:49;;;;;;;27.45;15.70;;;;;;;12.51;100.00;100098.94;5089372;28;20146;-77
2024/03/06 08:45:15;;;;;;;26.08;16.70;;;;;;;12.70;100.00;100078.22;5089311;28;20089;-77
2024/03/06 08:47:43;;;;;;;28.48;16.83;;;;;;;13.00;100.00;100094.97;5089437;28;20039;-77
2024/03/06 08:50:09;;;;;;;28.92;16.27;;;;;;;12.86;100.00;100099.75;5089474;28;20121;-77
2024/03/06 08:52:35;;;;;;;26.77;15.93;;;;;;;13.21;100.00;100111.50;5070593;28;20038;-78
2024/03/06 08:55:04;;;;;;;30.02;16.08;;;;;;;13.02;100.00;100108.94;5088837;28;20028;-78
2024/03/06 08:57:31;;;;;;;24.42;15.20;;;;;;;12.99;100.00;100105.91;5089237;28;20089;-78
2024/03/06 08:59:59;;;;;;;27.95;15.70;;;;;;;12.73;100.00;100091.97;5089368;28;20030;-78
2024/03/06 09:02:25;;;;;;;;;;;;;;;12.82;100.00;100100.44;5089307;28;20028;-77
2024/03/06 09:04:54;;;;;;;24.60;14.75;;;;;;;12.90;100.00;100110.00;5088324;28;19993;-78
2024/03/06 09:07:23;;;;;;;29.15;16.73;;;;;;;13.00;100.00;100099.53;5089156;28;20031;-77
2024/03/06 09:09:50;;;;;;;27.35;15.10;;;;;;;13.16;100.00;100087.28;5089314;28;20028;-79
2024/03/06 09:12:15;;;;;;;26.05;16.40;;;;;;;13.18;100.00;100077.97;5070886;28;20028;-78
2024/03/06 09:14:41;;;;;;;24.70;16.02;;;;;;;13.88;100.00;100110.19;5087588;28;20455;-78
2024/03/06 09:17:09;;;;;;;30.50;20.60;;;;;;;13.94;100.00;100110.03;5087057;28;20024;-78
2024/03/06 09:19:34;;;;;;;;;;;;;;;14.10;100.00;100107.63;5069216;28;20028;-78
2024/03/06 09:22:00;;;;;;;29.55;17.63;;;;;;;14.31;100.00;100098.06;5063825;28;19916;-78
2024/03/06 09:24:25;;;;;;;28.05;17.38;;;;;;;14.16;100.00;100095.91;5088304;28;20467;-78
2024/03/06 09:26:55;;;;;;;26.52;16.20;;;;;;;14.05;100.00;100101.09;5079847;28;20032;-78
2024/03/06 09:29:20;;;;;;;24.30;15.77;;;;;;;14.21;100.00;100087.97;5065975;28;20028;-78
2024/03/06 09:31:47;;;;;;;25.48;16.08;;;;;;;14.27;100.00;100092.38;5077457;28;20399;-77
2024/03/06 09:34:13;;;;;;;24.55;15.70;;;;;;;14.29;100.00;100084.91;5082369;28;21157;-76
2024/03/06 09:36:46;;;;;;;26.13;15.52;;;;;;;14.19;100.00;100098.13;5088321;28;20024;-77
2024/03/06 09:39:12;;;;;;;25.67;14.73;;;;;;;14.20;100.00;100091.69;5088381;28;20490;-78
2024/03/06 09:41:42;;;;;;;24.38;14.38;;;;;;;14.67;100.00;100096.81;5087272;28;20024;-78
2024/03/06 09:44:07;;;;;;;23.55;14.38;;;;;;;15.15;100.00;100092.66;5080885;28;20028;-79
2024/03/06 09:46:34;;;;;;;18.42;12.25;;;;;;;15.31;100.00;100096.34;5058775;28;20094;-78
2024/03/06 09:49:01;;;;;;;16.35;12.07;;;;;;;15.42;100.00;100087.34;5078112;28;20040;-78
2024/03/06 09:51:27;;;;;;;17.40;11.50;;;;;;;15.45;100.00;100108.34;5086084;28;20059;-77
2024/03/06 09:53:54;;;;;;;15.90;11.45;;;;;;;15.72;87.70;100109.47;5068592;28;20529;-78
2024/03/06 09:56:19;;;;;;;16.90;11.13;;;;;;;15.92;88.84;100103.56;5084245;28;20024;-78
2024/03/06 09:58:45;;;;;;;16.02;11.13;;;;;;;16.15;85.57;100099.72;5084262;28;20025;-78
2024/03/06 10:01:13;;;;;;;17.42;10.93;;;;;;;16.36;77.42;100112.28;5069837;28;20098;-78
2024/03/06 10:03:40;;;;;;;16.50;10.90;;;;;;;16.06;78.31;100096.69;5088210;28;20024;-77
2024/03/06 10:06:07;;;;;;;18.47;11.17;;;;;;;15.80;81.99;100092.94;5088240;28;20089;-78
2024/03/06 10:08:33;;;;;;;18.83;11.23;;;;;;;15.27;86.61;100077.22;5103873;28;20111;-78
2024/03/06 10:10:59;;;;;;;16.95;11.10;;;;;;;16.00;78.26;100098.53;5070103;28;20181;-78
2024/03/06 10:13:25;;;;;;;16.00;10.82;;;;;;;16.59;74.24;100100.38;5088169;28;20038;-77
2024/03/06 10:16:03;;;;;;;17.48;11.40;;;;;;;15.94;82.96;100077.22;5070024;28;20024;-78
2024/03/06 10:18:30;;;;;;;17.20;11.82;;;;;;;15.86;88.33;100070.41;5069794;28;20047;-77
2024/03/06 10:20:56;;;;;;;18.98;11.77;;;;;;;16.09;84.41;100090.78;5088494;28;20503;-78
2024/03/06 10:23:21;;;;;;;16.63;10.70;;;;;;;16.44;80.50;100082.22;5087991;28;20549;-78
2024/03/06 10:25:54;;;;;;;17.17;10.60;;;;;;;16.53;84.76;100068.28;5070031;28;20040;-78
2024/03/06 10:28:22;;;;;;;17.55;11.32;;;;;;;16.46;80.33;100074.69;5088229;28;20040;-77
2024/03/06 10:30:48;;;;;;;18.15;11.75;;;;;;;16.70;76.36;100079.72;5088600;28;20103;-78
2024/03/06 10:33:14;;;;;;;15.15;10.45;;;;;;;17.36;79.58;100070.41;5087591;28;20112;-78
2024/03/06 10:35:41;;;;;;;13.32;9.25;;;;;;;16.75;82.25;100076.25;5087725;28;20032;-79
2024/03/06 10:38:08;;;;;;;15.82;9.18;;;;;;;17.20;70.22;100083.00;5073152;28;20028;-78
2024/03/06 10:40:39;;;;;;;14.82;9.30;;;;;;;17.06;73.75;100061.91;5055883;28;20032;-78
2024/03/06 10:43:06;;;;;;;15.05;9.63;;;;;;;16.81;70.91;100049.09;5087063;28;20036;-78
2024/03/06 10:45:47;;;;;;;18.25;16.30;;;;;;;17.41;69.73;100073.13;5095373;28;20060;-78
2024/03/06 10:48:19;;;;;;;14.38;9.38;;;;;;;17.38;73.72;100069.06;5090070;28;20032;-79
2024/03/06 10:50:46;;;;;;;15.30;9.35;;;;;;;17.40;69.56;100076.88;5085996;28;20483;-77
2024/03/06 10:53:16;;;;;;;15.03;9.63;;;;;;;17.33;69.57;100044.78;5081939;28;20035;-78
2024/03/06 10:55:45;;;;;;;14.60;8.88;;;;;;;17.67;69.11;100066.75;5097989;28;20118;-77
2024/03/06 10:58:11;;;;;;;14.20;8.38;;;;;;;18.06;65.63;100063.59;5097895;28;20035;-77
2024/03/06 11:00:41;;;;;;;14.20;8.73;;;;;;;17.81;65.60;100060.81;5094349;28;20032;-77
2024/03/06 11:03:11;;;;;;;15.68;9.23;;;;;;;17.93;65.28;100058.72;5083800;28;20057;-78
2024/03/06 11:05:39;;;;;;;18.30;15.23;;;;;;;18.01;71.03;100036.59;5096986;28;20093;-78
2024/03/06 11:08:09;;;;;;;;;;;;;;;17.85;69.76;100045.75;5097487;28;20095;-78